Time;durP1;ratioP1;P1;durP2;ratioP2;P2;SDS_P1;SDS_P2;PMS_P1;PMS_P2;Temp;Humidity;BMP_temperature;BMP_pressure;BME280_temperature;BME280_humidity;BME280_pressure;Samples;Min_cycle;Max_cycle;Signal;HPM_P1;HPM_P2
2023/09/28 00:00:36;;;;;;;18.85;16.35;;;;;;;15.67;81.09;98329.47;5057595;28;20040;-71
2023/09/28 00:03:03;;;;;;;20.35;16.98;;;;;;;15.72;80.55;98348.47;5035730;28;20028;-72
2023/09/28 00:05:29;;;;;;;20.45;18.08;;;;;;;15.68;80.67;98341.97;5043397;28;20021;-71
2023/09/28 00:07:58;;;;;;;18.83;16.88;;;;;;;15.68;80.70;98342.75;5045029;28;20051;-72
2023/09/28 00:10:23;;;;;;;22.40;18.50;;;;;;;15.66;81.16;98338.72;5055637;28;20392;-72
2023/09/28 00:12:50;;;;;;;22.27;19.80;;;;;;;15.64;81.48;98340.88;5052821;28;20055;-72
2023/09/28 00:15:16;;;;;;;23.00;18.63;;;;;;;15.58;81.38;98341.97;5054739;28;20027;-72
2023/09/28 00:17:41;;;;;;;20.17;16.50;;;;;;;15.52;81.35;98343.06;5052862;28;20425;-72
2023/09/28 00:20:17;;;;;;;20.58;18.38;;;;;;;15.54;81.70;98336.25;5055495;28;20020;-71
2023/09/28 00:22:47;;;;;;;23.13;20.25;;;;;;;15.62;82.13;98343.88;5053260;28;20037;-71
2023/09/28 00:25:12;;;;;;;24.77;20.45;;;;;;;15.53;82.71;98323.78;5052352;28;20165;-71
2023/09/28 00:27:38;;;;;;;23.83;21.25;;;;;;;15.67;82.54;98346.59;5066962;28;20040;-71
2023/09/28 00:30:18;;;;;;;30.73;23.58;;;;;;;15.65;82.77;98353.38;5052663;28;20120;-71
2023/09/28 00:32:46;;;;;;;24.08;21.52;;;;;;;15.49;82.64;98335.47;5035370;28;20044;-69
2023/09/28 00:35:12;;;;;;;21.60;18.63;;;;;;;15.45;82.30;98331.69;5073199;28;20726;-70
2023/09/28 00:37:38;;;;;;;20.92;18.83;;;;;;;15.46;82.13;98339.53;5055920;28;20044;-70
2023/09/28 00:40:20;;;;;;;22.88;19.58;;;;;;;15.47;82.41;98353.94;5039247;28;20095;-72
2023/09/28 00:42:50;;;;;;;28.27;21.27;;;;;;;15.44;81.75;98346.28;5039709;28;20074;-71
2023/09/28 00:45:17;;;;;;;18.17;16.27;;;;;;;15.30;81.66;98342.50;5051772;28;20031;-72
2023/09/28 00:47:42;;;;;;;21.58;17.50;;;;;;;15.31;81.59;98349.56;5054967;28;20115;-71
2023/09/28 00:50:16;;;;;;;18.67;16.30;;;;;;;15.22;81.47;98333.81;5052316;28;20112;-71
2023/09/28 00:52:43;;;;;;;20.25;18.10;;;;;;;15.18;81.86;98338.16;5060417;28;20089;-72
2023/09/28 00:55:10;;;;;;;20.55;18.35;;;;;;;15.29;81.87;98351.69;5051854;28;20548;-72
2023/09/28 00:57:38;;;;;;;21.60;19.25;;;;;;;15.27;81.55;98351.16;5035373;28;20033;-71
2023/09/28 01:00:09;;;;;;;21.27;18.40;;;;;;;15.12;81.61;98328.38;5049646;28;20024;-71
2023/09/28 01:02:35;;;;;;;20.85;18.08;;;;;;;15.12;81.35;98322.16;5051967;28;20072;-72
2023/09/28 01:05:04;;;;;;;23.50;18.73;;;;;;;15.09;81.57;98323.50;5067650;28;20129;-71
2023/09/28 01:07:30;;;;;;;23.15;20.10;;;;;;;15.07;81.42;98317.53;5055189;28;20036;-71
2023/09/28 01:09:55;;;;;;;21.30;19.10;;;;;;;15.18;81.42;98335.44;5055185;28;20020;-72
2023/09/28 01:12:21;;;;;;;23.90;20.60;;;;;;;15.15;81.45;98341.41;5051867;28;20393;-72
2023/09/28 01:14:48;;;;;;;22.08;19.75;;;;;;;15.06;81.45;98329.44;5021434;28;20021;-71
2023/09/28 01:17:14;;;;;;;25.10;22.40;;;;;;;15.09;81.07;98339.78;5038328;28;20036;-72
2023/09/28 01:19:40;;;;;;;24.08;21.48;;;;;;;14.89;81.44;98328.88;5068349;28;20093;-72
2023/09/28 01:22:15;;;;;;;22.15;18.85;;;;;;;14.84;80.84;98320.72;5054880;28;20025;-72
2023/09/28 01:24:41;;;;;;;21.50;18.83;;;;;;;14.91;81.10;98337.56;5037814;28;20040;-70
2023/09/28 01:27:06;;;;;;;22.38;19.90;;;;;;;14.87;80.71;98336.47;5038251;28;20028;-70
2023/09/28 01:29:32;;;;;;;326.35;38.75;;;;;;;14.76;81.93;98348.38;5054666;28;20036;-70
2023/09/28 01:31:57;;;;;;;275.38;39.35;;;;;;;14.70;82.37;98345.94;5054710;28;20024;-70
2023/09/28 01:34:23;;;;;;;148.90;29.55;;;;;;;14.57;82.88;98330.97;5037562;28;20123;-71
2023/09/28 01:36:49;;;;;;;21.00;18.77;;;;;;;14.65;83.15;98344.03;5072618;28;20025;-72
2023/09/28 01:39:15;;;;;;;20.27;18.27;;;;;;;14.65;82.96;98349.44;5072505;28;20037;-70
2023/09/28 01:41:41;;;;;;;23.20;20.80;;;;;;;14.65;82.81;98344.03;5054437;28;20058;-71
2023/09/28 01:44:06;;;;;;;23.17;20.77;;;;;;;14.73;82.91;98357.03;5054438;28;20044;-72
2023/09/28 01:46:31;;;;;;;20.10;18.08;;;;;;;14.66;82.81;98353.78;5044960;28;20103;-70
2023/09/28 01:48:58;;;;;;;21.98;19.73;;;;;;;14.70;82.62;98352.19;5071020;28;20121;-70
2023/09/28 01:51:23;;;;;;;25.70;22.23;;;;;;;14.71;83.01;98345.66;5072319;28;20492;-70
2023/09/28 01:53:49;;;;;;;23.33;20.83;;;;;;;14.75;83.27;98344.03;5054186;28;20028;-70
2023/09/28 01:56:14;;;;;;;29.40;25.67;;;;;;;14.56;83.81;98313.09;5053858;28;20107;-70
2023/09/28 01:58:39;;;;;;;25.80;23.02;;;;;;;14.78;84.56;98338.09;5021087;28;20086;-72
2023/09/28 02:01:05;;;;;;;25.40;22.67;;;;;;;14.74;84.47;98326.16;5054319;28;20025;-71
2023/09/28 02:03:30;;;;;;;27.20;24.25;;;;;;;14.78;84.70;98324.53;5054170;28;20036;-71
2023/09/28 02:05:55;;;;;;;29.35;25.98;;;;;;;14.82;84.20;98333.75;5062576;28;20041;-71
2023/09/28 02:08:21;;;;;;;33.45;24.85;;;;;;;14.84;84.54;98347.06;5049562;28;20044;-71
2023/09/28 02:10:46;;;;;;;26.17;23.05;;;;;;;14.64;84.33;98315.28;5037354;28;20039;-71
2023/09/28 02:13:12;;;;;;;34.67;27.38;;;;;;;14.76;84.10;98348.38;5035885;28;20127;-70
2023/09/28 02:15:37;;;;;;;25.40;22.45;;;;;;;14.76;84.11;98355.69;5036830;28;20059;-71
2023/09/28 02:18:04;;;;;;;25.48;22.33;;;;;;;14.70;84.09;98346.75;5037311;28;20063;-71
2023/09/28 02:20:30;;;;;;;25.02;22.38;;;;;;;14.65;83.64;98335.88;5054216;28;20032;-71
2023/09/28 02:22:57;;;;;;;32.42;26.98;;;;;;;14.69;83.85;98345.13;5054176;28;20038;-71
2023/09/28 02:25:24;;;;;;;25.30;20.88;;;;;;;14.66;83.26;98351.06;5036717;28;20016;-71
2023/09/28 02:27:50;;;;;;;24.73;22.17;;;;;;;14.58;83.79;98338.03;5053508;28;20044;-70
2023/09/28 02:30:19;;;;;;;24.95;22.25;;;;;;;14.64;83.20;98347.81;5037174;28;20016;-70
2023/09/28 02:32:45;;;;;;;32.92;24.75;;;;;;;14.63;83.09;98357.03;5037155;28;20036;-71
2023/09/28 02:35:13;;;;;;;24.52;21.92;;;;;;;14.58;82.79;98359.72;5071131;28;20108;-72
2023/09/28 02:37:39;;;;;;;24.58;22.00;;;;;;;14.52;82.97;98341.78;5054052;28;20036;-72
2023/09/28 02:40:05;;;;;;;24.80;22.10;;;;;;;14.61;82.96;98351.03;5053520;28;20032;-71
2023/09/28 02:42:34;;;;;;;25.67;23.00;;;;;;;14.52;83.00;98339.09;5036974;28;20043;-71
2023/09/28 02:45:00;;;;;;;26.02;23.20;;;;;;;14.49;82.90;98334.22;5030924;28;20480;-72
2023/09/28 02:47:26;;;;;;;26.38;23.65;;;;;;;14.48;83.10;98338.81;5033847;28;20089;-72
2023/09/28 02:49:51;;;;;;;29.10;26.00;;;;;;;14.34;82.61;98326.03;5036881;28;20024;-71
2023/09/28 02:52:18;;;;;;;25.33;22.67;;;;;;;14.42;83.13;98349.91;5071339;28;20028;-71
2023/09/28 02:54:43;;;;;;;24.13;21.65;;;;;;;14.22;82.93;98318.09;5052848;28;20032;-70
2023/09/28 02:57:09;;;;;;;27.30;24.15;;;;;;;14.42;83.13;98349.91;5053533;28;20103;-71
2023/09/28 02:59:34;;;;;;;24.98;22.48;;;;;;;14.38;82.42;98343.38;5053384;28;20499;-72
2023/09/28 03:02:01;;;;;;;27.75;23.38;;;;;;;14.32;82.84;98349.84;5033365;28;20116;-72
2023/09/28 03:04:26;;;;;;;34.78;28.83;;;;;;;14.25;82.44;98344.66;5043642;28;20688;-71
2023/09/28 03:06:52;;;;;;;142.70;34.75;;;;;;;14.18;82.59;98341.38;5038489;28;20032;-72
2023/09/28 03:09:19;;;;;;;30.98;26.45;;;;;;;14.29;83.16;98355.75;5054169;28;20024;-72
2023/09/28 03:11:45;;;;;;;25.67;22.98;;;;;;;14.30;83.29;98352.03;5051218;28;20051;-72
2023/09/28 03:14:11;;;;;;;25.00;22.33;;;;;;;14.23;83.44;98351.41;5057258;28;20021;-71
2023/09/28 03:16:36;;;;;;;26.65;23.88;;;;;;;14.29;83.27;98362.00;5050376;28;20098;-72
2023/09/28 03:19:02;;;;;;;27.83;23.13;;;;;;;14.14;82.91;98347.59;5073917;28;20032;-72
2023/09/28 03:21:31;;;;;;;25.35;22.70;;;;;;;14.17;82.73;98352.44;5053834;28;20516;-72
2023/09/28 03:23:57;;;;;;;23.77;21.35;;;;;;;14.23;82.69;98362.25;5044687;28;20025;-72
2023/09/28 03:26:23;;;;;;;24.88;22.38;;;;;;;14.16;82.60;98350.84;5050924;28;20503;-72
2023/09/28 03:28:50;;;;;;;25.45;22.70;;;;;;;14.14;82.50;98345.66;5066126;28;20031;-72
2023/09/28 03:31:15;;;;;;;26.88;24.02;;;;;;;14.20;82.66;98362.75;5057069;28;20484;-71
2023/09/28 03:33:41;;;;;;;26.92;23.33;;;;;;;14.19;82.78;98366.56;5074852;28;20025;-70
2023/09/28 03:36:06;;;;;;;25.52;22.08;;;;;;;14.22;83.13;98366.03;5036503;28;20464;-71
2023/09/28 03:38:32;;;;;;;27.42;24.45;;;;;;;14.15;82.64;98360.03;5044682;28;20029;-71
2023/09/28 03:40:58;;;;;;;24.63;22.00;;;;;;;14.14;82.43;98355.72;5051423;28;20043;-70
2023/09/28 03:43:24;;;;;;;24.75;22.02;;;;;;;14.17;82.54;98357.88;5044789;28;20025;-70
2023/09/28 03:45:49;;;;;;;27.05;24.35;;;;;;;14.10;82.48;98347.28;5050821;28;20041;-70
2023/09/28 03:48:15;;;;;;;26.52;23.75;;;;;;;13.99;82.61;98333.94;5060971;28;20074;-71
2023/09/28 03:50:40;;;;;;;26.63;23.92;;;;;;;14.20;82.92;98368.19;5050961;28;20481;-71
2023/09/28 03:53:06;;;;;;;26.23;23.35;;;;;;;14.10;83.07;98357.28;5047420;28;20024;-71
2023/09/28 03:55:31;;;;;;;26.13;23.42;;;;;;;14.07;82.93;98352.41;5056028;28;20033;-71
2023/09/28 03:58:00;;;;;;;26.80;24.00;;;;;;;14.17;82.64;98374.13;5056529;28;20496;-70
2023/09/28 04:00:26;;;;;;;29.08;25.92;;;;;;;14.11;83.02;98365.16;5056829;28;20032;-70
2023/09/28 04:02:51;;;;;;;30.08;26.83;;;;;;;14.07;82.72;98368.66;5056552;28;20373;-71
2023/09/28 04:05:17;;;;;;;24.15;21.73;;;;;;;14.03;82.46;98372.94;5052371;28;20039;-71
2023/09/28 04:07:43;;;;;;;30.92;22.63;;;;;;;14.06;82.89;98375.97;5064448;28;20025;-72
2023/09/28 04:10:09;;;;;;;36.17;28.48;;;;;;;14.06;83.08;98375.16;5056419;28;20036;-72
2023/09/28 04:12:34;;;;;;;28.42;25.48;;;;;;;13.92;82.74;98360.44;5052933;28;20431;-70
2023/09/28 04:15:00;;;;;;;25.55;22.92;;;;;;;13.97;82.99;98364.00;5049013;28;20078;-68
2023/09/28 04:17:25;;;;;;;25.25;22.55;;;;;;;13.99;82.87;98371.84;5042839;28;20021;-70
2023/09/28 04:19:50;;;;;;;27.10;23.52;;;;;;;13.90;82.99;98354.47;5052795;28;20544;-70
2023/09/28 04:22:16;;;;;;;24.08;21.63;;;;;;;13.93;82.78;98356.66;5073901;28;20024;-71
2023/09/28 04:24:42;;;;;;;24.40;21.98;;;;;;;13.88;82.98;98355.53;5073417;28;20499;-71
2023/09/28 04:27:08;;;;;;;26.63;23.98;;;;;;;13.94;82.69;98364.53;5056121;28;20020;-72
2023/09/28 04:29:34;;;;;;;29.83;26.63;;;;;;;13.88;82.77;98360.16;5039281;28;20533;-72
2023/09/28 04:31:59;;;;;;;28.52;25.67;;;;;;;13.63;82.75;98322.91;5073892;28;20568;-72
2023/09/28 04:34:25;;;;;;;33.28;29.67;;;;;;;13.88;82.93;98359.34;5073382;28;20112;-73
2023/09/28 04:36:50;;;;;;;25.45;22.63;;;;;;;13.86;82.50;98365.03;5073672;28;20104;-73
2023/09/28 04:39:17;;;;;;;25.52;22.92;;;;;;;13.86;82.53;98363.13;5073878;28;20040;-73
2023/09/28 04:41:43;;;;;;;24.95;22.35;;;;;;;13.82;82.87;98356.59;5039186;28;20025;-73
2023/09/28 04:44:09;;;;;;;25.35;22.75;;;;;;;13.91;82.60;98364.25;5055304;28;20041;-72
2023/09/28 04:46:34;;;;;;;33.22;27.98;;;;;;;13.78;82.83;98358.19;5035461;28;20029;-73
2023/09/28 04:49:00;;;;;;;28.55;25.65;;;;;;;13.70;82.56;98372.22;5034991;28;20032;-73
2023/09/28 04:51:25;;;;;;;32.15;26.70;;;;;;;13.53;83.33;98382.38;5055633;28;20396;-72
2023/09/28 04:53:51;;;;;;;28.17;25.35;;;;;;;13.48;83.00;98398.56;5073430;28;20523;-73
2023/09/28 04:56:16;;;;;;;38.13;28.25;;;;;;;13.42;83.09;98394.16;5055098;28;20024;-74
2023/09/28 04:58:41;;;;;;;33.50;28.98;;;;;;;13.25;83.73;98392.69;5054606;28;20532;-73
2023/09/28 05:01:07;;;;;;;36.53;30.38;;;;;;;13.25;84.22;98398.91;5073285;28;20030;-73
2023/09/28 05:03:33;;;;;;;43.95;33.00;;;;;;;13.27;84.22;98404.06;5051473;28;20032;-73
2023/09/28 05:05:59;;;;;;;48.20;37.83;;;;;;;13.33;84.66;98411.94;5057126;28;20450;-74
2023/09/28 05:08:25;;;;;;;62.72;43.17;;;;;;;13.46;85.09;98438.59;5049241;28;20040;-73
2023/09/28 05:10:51;;;;;;;45.13;34.28;;;;;;;13.47;85.67;98445.63;5035100;28;20025;-73
2023/09/28 05:13:16;;;;;;;40.95;33.35;;;;;;;13.38;85.33;98425.53;5053064;28;20028;-73
2023/09/28 05:15:41;;;;;;;101.72;38.42;;;;;;;13.42;85.26;98431.25;5071094;28;20568;-72
2023/09/28 05:18:07;;;;;;;160.45;34.25;;;;;;;13.50;85.61;98438.88;5037343;28;20040;-73
2023/09/28 05:20:32;;;;;;;215.38;38.85;;;;;;;13.57;85.75;98456.56;5051569;28;20040;-73
2023/09/28 05:22:58;;;;;;;209.15;39.33;;;;;;;13.55;85.72;98452.47;5070127;28;20044;-73
2023/09/28 05:25:23;;;;;;;220.85;55.75;;;;;;;13.55;85.76;98455.19;5049847;28;20021;-72
2023/09/28 05:27:49;;;;;;;847.65;91.68;;;;;;;13.64;86.16;98473.41;5054603;28;20043;-71
2023/09/28 05:30:14;;;;;;;420.13;50.38;;;;;;;13.72;86.21;98470.19;5054221;28;20033;-72
2023/09/28 05:32:40;;;;;;;148.05;48.70;;;;;;;13.70;86.98;98458.81;5054996;28;20036;-71
2023/09/28 05:35:06;;;;;;;125.45;48.42;;;;;;;13.88;87.40;98463.84;5072272;28;20032;-72
2023/09/28 05:37:31;;;;;;;54.95;38.40;;;;;;;14.00;86.79;98458.28;5072713;28;20040;-73
2023/09/28 05:39:58;;;;;;;62.72;39.75;;;;;;;14.10;86.95;98455.59;5051238;28;20032;-72
2023/09/28 05:42:24;;;;;;;100.70;38.33;;;;;;;14.13;86.89;98454.28;5050790;28;20161;-71
2023/09/28 05:44:49;;;;;;;104.82;36.72;;;;;;;14.08;87.04;98432.56;5072072;28;20469;-72
2023/09/28 05:47:15;;;;;;;81.10;41.03;;;;;;;14.20;86.63;98446.75;5053562;28;20036;-72
2023/09/28 05:49:40;;;;;;;212.75;50.00;;;;;;;14.21;87.26;98448.38;5054553;28;20033;-72
2023/09/28 05:52:06;;;;;;;103.20;35.63;;;;;;;14.32;86.79;98452.81;5054534;28;20489;-73
2023/09/28 05:54:32;;;;;;;45.03;33.30;;;;;;;14.25;87.25;98435.94;5054304;28;20103;-72
2023/09/28 05:56:57;;;;;;;85.05;44.80;;;;;;;14.45;86.65;98463.19;5072039;28;20032;-73
2023/09/28 05:59:23;;;;;;;91.97;38.28;;;;;;;14.39;86.93;98447.97;5037856;28;20016;-72
2023/09/28 06:01:48;;;;;;;50.53;37.50;;;;;;;14.42;87.02;98442.03;5072190;28;20059;-72
2023/09/28 06:04:14;;;;;;;121.80;53.72;;;;;;;14.59;87.45;98467.03;5054097;28;20025;-73
2023/09/28 06:06:39;;;;;;;64.07;41.50;;;;;;;14.68;87.36;98464.66;5070582;28;20032;-70
2023/09/28 06:09:05;;;;;;;49.13;36.90;;;;;;;14.69;87.52;98450.84;5037583;28;20158;-71
2023/09/28 06:11:31;;;;;;;67.10;42.28;;;;;;;14.80;87.12;98466.06;5054167;28;20067;-72
2023/09/28 06:13:56;;;;;;;60.78;39.85;;;;;;;14.84;87.21;98474.50;5054184;28;20020;-72
2023/09/28 06:16:25;;;;;;;38.22;31.50;;;;;;;14.80;87.64;98476.09;5071438;28;20404;-71
2023/09/28 06:18:50;;;;;;;42.72;35.97;;;;;;;14.87;87.14;98471.25;5054445;28;20032;-72
2023/09/28 06:21:16;;;;;;;95.82;47.28;;;;;;;14.90;87.26;98463.41;5071881;28;20055;-72
2023/09/28 06:23:41;;;;;;;101.60;44.25;;;;;;;14.85;87.00;98447.09;5050766;28;20033;-72
2023/09/28 06:26:07;;;;;;;139.02;41.55;;;;;;;14.85;86.89;98438.16;5048940;28;20044;-72
2023/09/28 06:28:33;;;;;;;43.75;33.22;;;;;;;15.06;86.82;98456.94;5071878;28;20024;-71
2023/09/28 06:30:58;;;;;;;159.60;59.65;;;;;;;15.11;86.83;98462.38;5071755;28;20028;-72
2023/09/28 06:33:24;;;;;;;37.92;32.20;;;;;;;15.14;86.63;98461.03;5053876;28;20628;-72
2023/09/28 06:35:50;;;;;;;55.88;41.20;;;;;;;15.23;86.50;98468.41;5053185;28;20035;-72
2023/09/28 06:38:16;;;;;;;85.20;48.00;;;;;;;15.18;86.54;98468.38;5071725;28;20391;-72
2023/09/28 06:40:43;;;;;;;77.13;46.20;;;;;;;15.09;86.33;98464.56;5071564;28;20031;-72
2023/09/28 06:43:08;;;;;;;69.60;43.35;;;;;;;15.10;85.91;98471.59;5050464;28;20033;-72
2023/09/28 06:45:34;;;;;;;57.28;39.10;;;;;;;15.02;85.31;98468.59;5066566;28;20036;-72
2023/09/28 06:48:00;;;;;;;51.95;38.00;;;;;;;15.08;85.77;98471.06;5053428;28;20477;-72
2023/09/28 06:50:25;;;;;;;49.63;37.10;;;;;;;15.08;85.39;98478.38;5043847;28;20040;-72
2023/09/28 06:52:51;;;;;;;64.53;41.72;;;;;;;14.95;85.64;98458.00;5036878;28;20055;-72
2023/09/28 06:55:17;;;;;;;32.85;29.20;;;;;;;15.09;86.15;98475.41;5035042;28;20512;-71
2023/09/28 06:57:42;;;;;;;33.67;29.05;;;;;;;15.05;86.17;98449.88;5063305;28;20718;-71
2023/09/28 07:00:09;;;;;;;34.03;30.42;;;;;;;15.38;86.01;98478.44;5048950;28;20046;-71
2023/09/28 07:02:35;;;;;;;33.75;30.08;;;;;;;15.30;85.69;98443.72;5033418;28;20029;-72
2023/09/28 07:05:03;;;;;;;32.28;28.88;;;;;;;15.50;86.56;98470.09;5064991;28;20078;-72
2023/09/28 07:07:30;;;;;;;46.90;34.08;;;;;;;15.51;86.95;98477.97;5050258;28;20108;-72
2023/09/28 07:09:56;;;;;;;41.25;32.63;;;;;;;15.46;87.10;98480.69;5048857;28;20132;-72
2023/09/28 07:12:24;;;;;;;35.83;31.98;;;;;;;15.49;87.54;98469.31;5033425;28;20108;-73
2023/09/28 07:14:50;;;;;;;77.93;40.80;;;;;;;15.44;86.92;98466.56;5066456;28;20032;-73
2023/09/28 07:17:15;;;;;;;44.83;35.17;;;;;;;15.49;86.95;98479.34;5033176;28;20025;-73
2023/09/28 07:19:42;;;;;;;47.80;37.25;;;;;;;15.45;88.06;98510.81;5047488;28;20123;-74
2023/09/28 07:22:07;;;;;;;47.65;35.67;;;;;;;15.38;88.23;98510.22;5033501;28;20033;-72
2023/09/28 07:24:36;;;;;;;43.67;35.28;;;;;;;15.40;88.63;98529.78;5066296;28;20123;-73
2023/09/28 07:27:01;;;;;;;69.60;39.20;;;;;;;15.35;88.25;98510.75;5071333;28;20013;-74
2023/09/28 07:29:27;;;;;;;67.45;44.38;;;;;;;15.30;88.25;98510.72;5053349;28;20992;-73
2023/09/28 07:31:52;;;;;;;77.32;45.92;;;;;;;15.27;88.50;98500.41;5033268;28;20028;-73
2023/09/28 07:34:18;;;;;;;73.03;48.47;;;;;;;15.29;88.29;98511.81;5049251;28;20041;-72
2023/09/28 07:36:45;;;;;;;57.10;42.53;;;;;;;15.44;88.47;98509.16;5052675;28;20029;-74
2023/09/28 07:39:11;;;;;;;57.28;41.65;;;;;;;15.48;88.28;98507.56;5053616;28;20153;-73
2023/09/28 07:41:37;;;;;;;59.58;44.28;;;;;;;15.53;88.03;98502.13;5036640;28;20032;-74
2023/09/28 07:44:02;;;;;;;58.55;42.58;;;;;;;15.62;88.01;98511.38;5052031;28;20037;-74
2023/09/28 07:46:27;;;;;;;43.17;34.33;;;;;;;15.85;87.69;98516.28;5047493;28;20103;-73
2023/09/28 07:48:55;;;;;;;39.17;31.98;;;;;;;15.96;87.65;98517.97;5068932;28;20099;-74
2023/09/28 07:51:21;;;;;;;44.25;35.92;;;;;;;16.06;87.53;98509.78;5051797;28;20507;-73
2023/09/28 07:53:47;;;;;;;41.50;34.05;;;;;;;16.01;87.54;98492.69;5054723;28;20040;-74
2023/09/28 07:56:12;;;;;;;40.60;32.55;;;;;;;16.00;87.67;98480.19;5055813;28;20023;-72
2023/09/28 07:58:37;;;;;;;38.83;31.05;;;;;;;16.27;87.71;98503.25;5056180;28;20040;-73
2023/09/28 08:01:03;;;;;;;35.15;30.70;;;;;;;16.33;87.74;98491.31;5073780;28;20120;-74
2023/09/28 08:03:29;;;;;;;39.00;29.65;;;;;;;16.52;87.93;98489.66;5074472;28;20043;-73
2023/09/28 08:05:54;;;;;;;31.45;28.05;;;;;;;16.67;87.67;98498.88;5056129;28;20524;-74
2023/09/28 08:08:19;;;;;;;33.85;29.55;;;;;;;16.81;87.57;98497.19;5074319;28;20110;-74
2023/09/28 08:10:45;;;;;;;36.50;29.08;;;;;;;16.93;88.23;98494.97;5053184;28;20025;-74
2023/09/28 08:13:10;;;;;;;33.95;29.52;;;;;;;17.17;87.97;98509.59;5038253;28;20553;-73
2023/09/28 08:15:36;;;;;;;32.45;28.38;;;;;;;17.25;88.02;98485.31;5035716;28;20057;-74
2023/09/28 08:18:02;;;;;;;32.10;28.23;;;;;;;17.43;88.11;98508.38;5049678;28;20064;-74
2023/09/28 08:20:27;;;;;;;33.67;28.65;;;;;;;17.49;87.94;98499.06;5036486;28;20028;-74
2023/09/28 08:22:52;;;;;;;34.70;27.13;;;;;;;17.73;87.77;98515.56;5051410;28;20507;-74
2023/09/28 08:25:18;;;;;;;33.30;27.05;;;;;;;17.79;87.37;98495.34;5036007;28;20108;-74
2023/09/28 08:27:43;;;;;;;30.70;25.25;;;;;;;18.04;86.98;98516.16;5032706;28;20519;-73
2023/09/28 08:30:10;;;;;;;30.35;24.25;;;;;;;18.05;86.25;98490.53;5074182;28;20400;-73
2023/09/28 08:32:35;;;;;;;26.65;23.80;;;;;;;18.25;85.54;98493.09;5039674;28;20163;-74
2023/09/28 08:35:01;;;;;;;26.77;22.98;;;;;;;18.49;85.03;98518.50;5073454;28;20502;-74
2023/09/28 08:37:26;;;;;;;25.90;21.05;;;;;;;18.51;84.05;98495.31;5039436;28;20039;-75
2023/09/28 08:39:52;;;;;;;27.70;21.00;;;;;;;18.69;83.06;98512.88;5035832;28;20396;-74
2023/09/28 08:42:23;;;;;;;21.85;18.42;;;;;;;18.83;81.95;98499.34;5050207;28;20385;-72
2023/09/28 08:44:51;;;;;;;21.35;17.23;;;;;;;18.89;81.69;98499.00;5051281;28;20060;-73
2023/09/28 08:47:17;;;;;;;21.25;16.70;;;;;;;18.94;80.50;98509.84;5053871;28;20052;-74
2023/09/28 08:49:46;;;;;;;17.00;15.30;;;;;;;19.11;79.34;98499.25;5052294;28;20106;-75
2023/09/28 08:52:14;;;;;;;19.83;15.20;;;;;;;19.18;78.62;98504.38;5035094;28;20120;-75
2023/09/28 08:54:39;;;;;;;16.42;14.43;;;;;;;19.29;78.79;98490.31;5047248;28;20029;-74
2023/09/28 08:57:05;;;;;;;16.88;14.50;;;;;;;19.26;78.69;98469.03;5053858;28;20017;-75
2023/09/28 08:59:30;;;;;;;15.65;13.85;;;;;;;19.44;77.72;98466.66;5073387;28;20107;-75
2023/09/28 09:01:57;;;;;;;16.00;14.38;;;;;;;19.50;77.34;98477.19;5038534;28;20150;-75
2023/09/28 09:04:23;;;;;;;13.93;12.52;;;;;;;19.55;77.05;98482.59;5054123;28;20047;-73
2023/09/28 09:06:48;;;;;;;15.73;12.95;;;;;;;19.60;76.51;98474.34;5059865;28;20020;-75
2023/09/28 09:09:17;;;;;;;14.63;13.05;;;;;;;19.79;75.94;98488.00;5035544;28;20055;-74
2023/09/28 09:11:49;;;;;;;16.88;13.23;;;;;;;19.70;75.07;98468.69;5049638;28;20036;-75
2023/09/28 09:14:15;;;;;;;13.48;11.95;;;;;;;19.74;75.14;98463.47;5055363;28;20043;-75
2023/09/28 09:16:41;;;;;;;13.50;11.45;;;;;;;19.89;74.62;98465.94;5038043;28;20480;-75
2023/09/28 09:19:07;;;;;;;14.35;11.82;;;;;;;20.01;74.01;98463.56;5055769;28;20045;-75
2023/09/28 09:21:40;;;;;;;16.02;11.07;;;;;;;20.28;73.23;98482.81;5055317;28;20106;-74
2023/09/28 09:24:10;;;;;;;15.00;11.23;;;;;;;20.41;73.21;98493.00;5055431;28;20047;-74
2023/09/28 09:26:43;;;;;;;13.05;10.63;;;;;;;20.55;72.17;98482.88;5055025;28;20571;-75
2023/09/28 09:29:12;;;;;;;11.20;10.10;;;;;;;20.60;71.08;98484.72;5038649;28;20076;-75
2023/09/28 09:31:44;;;;;;;12.55;9.70;;;;;;;20.85;70.86;98495.16;5051671;28;20029;-75
2023/09/28 09:34:18;;;;;;;11.32;9.50;;;;;;;21.00;70.86;98496.81;5049541;28;20042;-74
2023/09/28 09:36:55;;;;;;;10.98;9.88;;;;;;;21.05;70.05;98497.53;5071205;28;20033;-76
2023/09/28 09:39:22;;;;;;;9.57;8.60;;;;;;;21.13;69.77;98506.97;5062717;28;20678;-74
2023/09/28 09:41:49;;;;;;;9.63;8.73;;;;;;;21.15;69.37;98504.72;5051359;28;20108;-75
2023/09/28 09:44:21;;;;;;;10.38;8.30;;;;;;;21.23;68.62;98495.81;5069675;28;20564;-74
2023/09/28 09:46:51;;;;;;;9.63;7.95;;;;;;;21.34;68.64;98497.22;5051097;28;20162;-75
2023/09/28 09:49:18;;;;;;;9.02;8.00;;;;;;;21.36;67.73;98486.75;5033311;28;20094;-76
2023/09/28 09:51:45;;;;;;;11.63;8.23;;;;;;;21.39;67.58;98493.53;5043452;28;20112;-75
2023/09/28 09:54:13;;;;;;;10.05;8.18;;;;;;;21.40;67.25;98490.50;5050349;28;20043;-75
2023/09/28 09:56:40;;;;;;;9.23;8.02;;;;;;;21.38;66.98;98489.19;5046816;28;20021;-74
2023/09/28 09:59:06;;;;;;;10.48;8.50;;;;;;;21.48;66.86;98519.09;5071061;28;20648;-76
2023/09/28 10:01:33;;;;;;;11.45;8.82;;;;;;;21.43;67.54;98517.28;5051341;28;20032;-75
2023/09/28 10:04:03;;;;;;;12.43;9.82;;;;;;;21.34;67.18;98492.53;5033673;28;20039;-75
2023/09/28 10:06:28;;;;;;;10.35;9.30;;;;;;;21.38;67.18;98506.44;5044179;28;20037;-75
2023/09/28 10:08:54;;;;;;;9.70;8.63;;;;;;;21.53;67.16;98517.09;5034165;28;20025;-75
2023/09/28 10:11:20;;;;;;;11.10;8.32;;;;;;;21.54;66.85;98496.75;5044154;28;20037;-75
2023/09/28 10:13:48;;;;;;;10.63;8.38;;;;;;;21.78;66.52;98516.50;5053869;28;20500;-75
2023/09/28 10:16:15;;;;;;;14.35;9.30;;;;;;;21.71;65.70;98513.38;5069970;28;20040;-75
2023/09/28 10:18:46;;;;;;;10.55;8.30;;;;;;;21.82;65.56;98513.97;5050681;28;20028;-74
2023/09/28 10:21:14;;;;;;;12.60;11.25;;;;;;;21.82;65.34;98514.75;5029394;28;20033;-75
2023/09/28 10:23:40;;;;;;;7.03;4.28;;;;;;;21.84;65.11;98518.03;5050690;28;20025;-74
2023/09/28 10:26:11;;;;;;;8.80;7.75;;;;;;;21.90;65.14;98503.09;5047911;28;20493;-75
2023/09/28 10:29:01;;;;;;;9.43;8.38;;;;;;;22.09;64.98;98507.59;5050978;28;20065;-75
2023/09/28 10:31:31;;;;;;;11.48;8.15;;;;;;;22.10;64.55;98503.72;5034717;28;20693;-75
2023/09/28 10:34:03;;;;;;;11.00;7.53;;;;;;;22.16;64.75;98502.47;5045876;28;20042;-75
2023/09/28 10:36:30;;;;;;;10.40;7.97;;;;;;;22.24;64.92;98490.75;5049911;28;20037;-75
2023/09/28 10:39:14;;;;;;;11.25;8.40;;;;;;;22.34;64.46;98485.00;5045031;28;20146;-75
2023/09/28 10:41:44;;;;;;;11.52;7.43;;;;;;;22.47;64.12;98493.19;5043150;28;20059;-74
2023/09/28 10:44:17;;;;;;;9.38;7.65;;;;;;;22.55;64.11;98497.06;5052934;28;20055;-74
2023/09/28 10:46:44;;;;;;;10.98;7.05;;;;;;;22.66;63.81;98495.72;5033307;28;20048;-75
2023/09/28 10:49:12;;;;;;;7.97;7.18;;;;;;;22.83;63.63;98489.47;5034109;28;20028;-75
2023/09/28 10:51:38;;;;;;;9.25;6.75;;;;;;;22.91;63.63;98492.28;5033697;28;20510;-75
2023/09/28 10:54:05;;;;;;;8.02;7.05;;;;;;;22.94;62.95;98483.38;5068630;28;20021;-75
2023/09/28 10:56:31;;;;;;;9.55;7.35;;;;;;;23.05;62.48;98479.25;5049776;28;20041;-74
2023/09/28 10:58:56;;;;;;;11.05;7.38;;;;;;;23.17;62.77;98484.94;5047782;28;20029;-75
2023/09/28 11:01:22;;;;;;;7.40;6.70;;;;;;;23.16;62.44;98477.81;5062462;28;20090;-75
2023/09/28 11:03:50;;;;;;;7.63;6.85;;;;;;;23.28;61.67;98501.94;5050112;28;20029;-75
2023/09/28 11:06:15;;;;;;;8.02;6.90;;;;;;;23.40;61.68;98504.09;5044964;28;20381;-75
2023/09/28 11:08:41;;;;;;;8.40;6.60;;;;;;;23.38;61.36;98498.13;5053040;28;20051;-74
2023/09/28 11:11:07;;;;;;;8.65;7.35;;;;;;;23.20;60.92;98489.78;5053241;28;20028;-75
2023/09/28 11:13:32;;;;;;;9.27;7.15;;;;;;;23.34;60.37;98501.50;5049838;28;20028;-75
2023/09/28 11:15:59;;;;;;;8.75;6.93;;;;;;;23.27;60.60;98483.81;5019215;28;20043;-75